sensor_id;sensor_type;location;lat;lon;timestamp;P1;durP1;ratioP1;P2;durP2;ratioP2
7340;SDS011;6870;50.944;6.932;2024-03-22T00:00:25;7.40;;;5.93;;
7340;SDS011;6870;50.944;6.932;2024-03-22T00:02:52;9.53;;;6.80;;
7340;SDS011;6870;50.944;6.932;2024-03-22T00:05:20;8.00;;;6.40;;
7340;SDS011;6870;50.944;6.932;2024-03-22T00:07:47;7.30;;;6.00;;
7340;SDS011;6870;50.944;6.932;2024-03-22T00:10:14;9.53;;;6.00;;
7340;SDS011;6870;50.944;6.932;2024-03-22T00:12:41;10.10;;;6.03;;
7340;SDS011;6870;50.944;6.932;2024-03-22T00:15:07;9.57;;;6.00;;
7340;SDS011;6870;50.944;6.932;2024-03-22T00:17:35;6.90;;;5.67;;
7340;SDS011;6870;50.944;6.932;2024-03-22T00:20:01;8.90;;;6.53;;
7340;SDS011;6870;50.944;6.932;2024-03-22T00:22:30;8.87;;;5.83;;
7340;SDS011;6870;50.944;6.932;2024-03-22T00:24:56;7.70;;;6.20;;
7340;SDS011;6870;50.944;6.932;2024-03-22T00:27:23;8.50;;;5.53;;
7340;SDS011;6870;50.944;6.932;2024-03-22T00:29:49;10.47;;;7.00;;
7340;SDS011;6870;50.944;6.932;2024-03-22T00:32:16;6.70;;;4.93;;
7340;SDS011;6870;50.944;6.932;2024-03-22T00:34:43;10.00;;;7.10;;
7340;SDS011;6870;50.944;6.932;2024-03-22T00:37:10;6.57;;;5.47;;
7340;SDS011;6870;50.944;6.932;2024-03-22T00:39:38;6.70;;;5.10;;
7340;SDS011;6870;50.944;6.932;2024-03-22T00:42:05;8.30;;;5.90;;
7340;SDS011;6870;50.944;6.932;2024-03-22T00:44:32;8.10;;;5.40;;
7340;SDS011;6870;50.944;6.932;2024-03-22T00:46:59;12.20;;;5.83;;
7340;SDS011;6870;50.944;6.932;2024-03-22T00:49:25;7.73;;;6.27;;
7340;SDS011;6870;50.944;6.932;2024-03-22T00:51:52;7.83;;;5.73;;
7340;SDS011;6870;50.944;6.932;2024-03-22T00:54:20;7.53;;;5.10;;
7340;SDS011;6870;50.944;6.932;2024-03-22T00:56:49;6.27;;;5.47;;
7340;SDS011;6870;50.944;6.932;2024-03-22T00:59:16;6.67;;;5.50;;
7340;SDS011;6870;50.944;6.932;2024-03-22T01:01:43;6.47;;;5.40;;
7340;SDS011;6870;50.944;6.932;2024-03-22T01:04:10;10.13;;;5.27;;
7340;SDS011;6870;50.944;6.932;2024-03-22T01:06:36;8.63;;;6.33;;
7340;SDS011;6870;50.944;6.932;2024-03-22T01:09:05;7.00;;;5.77;;
7340;SDS011;6870;50.944;6.932;2024-03-22T01:11:31;8.03;;;5.63;;
7340;SDS011;6870;50.944;6.932;2024-03-22T01:14:00;8.70;;;4.93;;
7340;SDS011;6870;50.944;6.932;2024-03-22T01:16:26;7.50;;;5.03;;
7340;SDS011;6870;50.944;6.932;2024-03-22T01:18:53;10.63;;;5.77;;
7340;SDS011;6870;50.944;6.932;2024-03-22T01:21:19;7.40;;;5.83;;
7340;SDS011;6870;50.944;6.932;2024-03-22T01:23:50;6.77;;;5.20;;
7340;SDS011;6870;50.944;6.932;2024-03-22T01:26:17;7.63;;;4.73;;
7340;SDS011;6870;50.944;6.932;2024-03-22T01:28:44;6.87;;;5.07;;
7340;SDS011;6870;50.944;6.932;2024-03-22T01:31:13;7.40;;;5.37;;
7340;SDS011;6870;50.944;6.932;2024-03-22T01:33:41;7.73;;;5.63;;
7340;SDS011;6870;50.944;6.932;2024-03-22T01:36:07;8.50;;;5.30;;
7340;SDS011;6870;50.944;6.932;2024-03-22T01:38:34;7.00;;;5.60;;
7340;SDS011;6870;50.944;6.932;2024-03-22T01:41:01;5.70;;;5.10;;
7340;SDS011;6870;50.944;6.932;2024-03-22T01:43:28;6.30;;;5.27;;
7340;SDS011;6870;50.944;6.932;2024-03-22T01:45:55;7.33;;;5.33;;
7340;SDS011;6870;50.944;6.932;2024-03-22T01:48:23;7.57;;;5.00;;
7340;SDS011;6870;50.944;6.932;2024-03-22T01:50:50;7.00;;;4.87;;
7340;SDS011;6870;50.944;6.932;2024-03-22T01:53:18;6.67;;;4.90;;
7340;SDS011;6870;50.944;6.932;2024-03-22T01:55:45;5.73;;;4.00;;
7340;SDS011;6870;50.944;6.932;2024-03-22T01:58:12;6.87;;;4.93;;
7340;SDS011;6870;50.944;6.932;2024-03-22T02:00:40;6.10;;;5.00;;
7340;SDS011;6870;50.944;6.932;2024-03-22T02:03:08;5.10;;;4.60;;
7340;SDS011;6870;50.944;6.932;2024-03-22T02:05:35;6.20;;;5.23;;
7340;SDS011;6870;50.944;6.932;2024-03-22T02:08:03;6.93;;;5.20;;
7340;SDS011;6870;50.944;6.932;2024-03-22T02:10:30;5.60;;;4.37;;
7340;SDS011;6870;50.944;6.932;2024-03-22T02:12:58;8.13;;;5.63;;
7340;SDS011;6870;50.944;6.932;2024-03-22T02:15:24;12.70;;;4.83;;
7340;SDS011;6870;50.944;6.932;2024-03-22T02:17:54;6.03;;;4.90;;
7340;SDS011;6870;50.944;6.932;2024-03-22T02:20:20;8.53;;;4.90;;
7340;SDS011;6870;50.944;6.932;2024-03-22T02:22:49;6.50;;;4.83;;
7340;SDS011;6870;50.944;6.932;2024-03-22T02:25:16;5.63;;;4.83;;
7340;SDS011;6870;50.944;6.932;2024-03-22T02:27:44;9.63;;;5.67;;
7340;SDS011;6870;50.944;6.932;2024-03-22T02:30:10;5.60;;;4.07;;
7340;SDS011;6870;50.944;6.932;2024-03-22T02:32:38;7.50;;;5.23;;
7340;SDS011;6870;50.944;6.932;2024-03-22T02:35:06;6.83;;;4.43;;
7340;SDS011;6870;50.944;6.932;2024-03-22T02:37:34;7.07;;;5.27;;
7340;SDS011;6870;50.944;6.932;2024-03-22T02:40:00;6.90;;;5.27;;
7340;SDS011;6870;50.944;6.932;2024-03-22T02:42:29;6.90;;;5.20;;
7340;SDS011;6870;50.944;6.932;2024-03-22T02:44:56;5.93;;;4.53;;
7340;SDS011;6870;50.944;6.932;2024-03-22T02:47:22;4.80;;;4.13;;
7340;SDS011;6870;50.944;6.932;2024-03-22T02:49:50;8.27;;;5.20;;
7340;SDS011;6870;50.944;6.932;2024-03-22T02:52:16;4.80;;;3.93;;
7340;SDS011;6870;50.944;6.932;2024-03-22T02:54:45;7.80;;;4.80;;
7340;SDS011;6870;50.944;6.932;2024-03-22T02:57:12;4.87;;;4.37;;
7340;SDS011;6870;50.944;6.932;2024-03-22T02:59:40;4.57;;;4.07;;
7340;SDS011;6870;50.944;6.932;2024-03-22T03:02:06;7.73;;;4.57;;
7340;SDS011;6870;50.944;6.932;2024-03-22T03:04:33;6.67;;;5.17;;
7340;SDS011;6870;50.944;6.932;2024-03-22T03:07:00;6.57;;;4.67;;
7340;SDS011;6870;50.944;6.932;2024-03-22T03:09:27;8.63;;;3.90;;
7340;SDS011;6870;50.944;6.932;2024-03-22T03:11:53;5.37;;;4.20;;
7340;SDS011;6870;50.944;6.932;2024-03-22T03:14:20;7.53;;;3.87;;
7340;SDS011;6870;50.944;6.932;2024-03-22T03:16:48;4.90;;;4.20;;
7340;SDS011;6870;50.944;6.932;2024-03-22T03:19:15;5.43;;;4.40;;
7340;SDS011;6870;50.944;6.932;2024-03-22T03:21:41;6.93;;;4.90;;
7340;SDS011;6870;50.944;6.932;2024-03-22T03:24:09;5.93;;;4.40;;
7340;SDS011;6870;50.944;6.932;2024-03-22T03:26:35;6.80;;;4.10;;
7340;SDS011;6870;50.944;6.932;2024-03-22T03:29:02;4.67;;;4.17;;
7340;SDS011;6870;50.944;6.932;2024-03-22T03:31:31;5.50;;;4.07;;
7340;SDS011;6870;50.944;6.932;2024-03-22T03:34:00;5.43;;;4.27;;
7340;SDS011;6870;50.944;6.932;2024-03-22T03:36:26;7.27;;;4.30;;
7340;SDS011;6870;50.944;6.932;2024-03-22T03:38:53;6.53;;;4.10;;
7340;SDS011;6870;50.944;6.932;2024-03-22T03:41:19;9.20;;;4.57;;
7340;SDS011;6870;50.944;6.932;2024-03-22T03:43:47;5.90;;;4.67;;
7340;SDS011;6870;50.944;6.932;2024-03-22T03:46:13;5.13;;;4.30;;
7340;SDS011;6870;50.944;6.932;2024-03-22T03:48:40;9.70;;;4.07;;
7340;SDS011;6870;50.944;6.932;2024-03-22T03:51:08;6.30;;;4.43;;
7340;SDS011;6870;50.944;6.932;2024-03-22T03:53:35;5.80;;;4.40;;
7340;SDS011;6870;50.944;6.932;2024-03-22T03:56:01;4.93;;;4.03;;
7340;SDS011;6870;50.944;6.932;2024-03-22T03:58:28;4.30;;;3.90;;
7340;SDS011;6870;50.944;6.932;2024-03-22T04:00:55;7.00;;;4.00;;
7340;SDS011;6870;50.944;6.932;2024-03-22T04:03:22;5.47;;;4.60;;
7340;SDS011;6870;50.944;6.932;2024-03-22T04:05:55;9.03;;;4.80;;
7340;SDS011;6870;50.944;6.932;2024-03-22T04:08:24;4.87;;;3.47;;
7340;SDS011;6870;50.944;6.932;2024-03-22T04:10:51;8.17;;;4.60;;
7340;SDS011;6870;50.944;6.932;2024-03-22T04:13:19;5.17;;;4.50;;
7340;SDS011;6870;50.944;6.932;2024-03-22T04:15:45;5.43;;;3.70;;
7340;SDS011;6870;50.944;6.932;2024-03-22T04:18:12;4.90;;;3.83;;
7340;SDS011;6870;50.944;6.932;2024-03-22T04:20:38;7.03;;;3.53;;
7340;SDS011;6870;50.944;6.932;2024-03-22T04:23:05;5.10;;;3.60;;
7340;SDS011;6870;50.944;6.932;2024-03-22T04:25:33;9.40;;;4.10;;
7340;SDS011;6870;50.944;6.932;2024-03-22T04:28:00;4.70;;;4.07;;
7340;SDS011;6870;50.944;6.932;2024-03-22T04:30:27;4.17;;;3.77;;
7340;SDS011;6870;50.944;6.932;2024-03-22T04:32:54;5.80;;;4.60;;
7340;SDS011;6870;50.944;6.932;2024-03-22T04:35:20;6.03;;;3.83;;
7340;SDS011;6870;50.944;6.932;2024-03-22T04:37:47;5.10;;;4.33;;
7340;SDS011;6870;50.944;6.932;2024-03-22T04:40:14;4.70;;;3.80;;
7340;SDS011;6870;50.944;6.932;2024-03-22T04:42:43;5.70;;;4.57;;
7340;SDS011;6870;50.944;6.932;2024-03-22T04:45:10;4.90;;;3.73;;
7340;SDS011;6870;50.944;6.932;2024-03-22T04:47:38;5.20;;;4.00;;
7340;SDS011;6870;50.944;6.932;2024-03-22T04:50:06;5.13;;;3.27;;
7340;SDS011;6870;50.944;6.932;2024-03-22T04:52:34;4.70;;;4.20;;
7340;SDS011;6870;50.944;6.932;2024-03-22T04:55:00;4.63;;;3.60;;
7340;SDS011;6870;50.944;6.932;2024-03-22T04:57:28;5.10;;;3.77;;
7340;SDS011;6870;50.944;6.932;2024-03-22T04:59:55;3.93;;;3.33;;
7340;SDS011;6870;50.944;6.932;2024-03-22T05:02:23;6.67;;;4.07;;
7340;SDS011;6870;50.944;6.932;2024-03-22T05:04:49;4.33;;;3.10;;
7340;SDS011;6870;50.944;6.932;2024-03-22T05:07:16;6.13;;;3.80;;
7340;SDS011;6870;50.944;6.932;2024-03-22T05:09:43;5.73;;;3.90;;
7340;SDS011;6870;50.944;6.932;2024-03-22T05:12:10;4.23;;;3.50;;
7340;SDS011;6870;50.944;6.932;2024-03-22T05:14:36;6.80;;;3.60;;
7340;SDS011;6870;50.944;6.932;2024-03-22T05:17:05;5.10;;;4.00;;
7340;SDS011;6870;50.944;6.932;2024-03-22T05:19:31;7.10;;;3.53;;
7340;SDS011;6870;50.944;6.932;2024-03-22T05:21:58;4.97;;;3.50;;
7340;SDS011;6870;50.944;6.932;2024-03-22T05:24:25;4.20;;;2.80;;
7340;SDS011;6870;50.944;6.932;2024-03-22T05:26:53;5.20;;;3.90;;
7340;SDS011;6870;50.944;6.932;2024-03-22T05:29:19;6.53;;;3.33;;
7340;SDS011;6870;50.944;6.932;2024-03-22T05:31:47;4.73;;;3.50;;
7340;SDS011;6870;50.944;6.932;2024-03-22T05:34:18;4.57;;;3.47;;
7340;SDS011;6870;50.944;6.932;2024-03-22T05:36:45;3.70;;;3.27;;
7340;SDS011;6870;50.944;6.932;2024-03-22T05:39:11;3.57;;;2.70;;
7340;SDS011;6870;50.944;6.932;2024-03-22T05:41:39;4.23;;;3.30;;
7340;SDS011;6870;50.944;6.932;2024-03-22T05:44:05;4.00;;;2.97;;
7340;SDS011;6870;50.944;6.932;2024-03-22T05:46:33;4.23;;;3.37;;
7340;SDS011;6870;50.944;6.932;2024-03-22T05:49:00;4.83;;;2.70;;
7340;SDS011;6870;50.944;6.932;2024-03-22T05:51:29;5.70;;;3.00;;
7340;SDS011;6870;50.944;6.932;2024-03-22T05:53:55;3.73;;;3.10;;
7340;SDS011;6870;50.944;6.932;2024-03-22T05:56:23;3.70;;;2.87;;
7340;SDS011;6870;50.944;6.932;2024-03-22T05:58:49;9.73;;;3.13;;
7340;SDS011;6870;50.944;6.932;2024-03-22T06:01:16;5.33;;;3.17;;
7340;SDS011;6870;50.944;6.932;2024-03-22T06:03:43;3.70;;;2.57;;
7340;SDS011;6870;50.944;6.932;2024-03-22T06:06:10;4.60;;;3.07;;
7340;SDS011;6870;50.944;6.932;2024-03-22T06:08:38;4.43;;;3.27;;
7340;SDS011;6870;50.944;6.932;2024-03-22T06:11:08;5.93;;;3.37;;
7340;SDS011;6870;50.944;6.932;2024-03-22T06:13:35;3.90;;;2.97;;
7340;SDS011;6870;50.944;6.932;2024-03-22T06:16:03;5.50;;;3.10;;
7340;SDS011;6870;50.944;6.932;2024-03-22T06:18:30;5.07;;;3.03;;
7340;SDS011;6870;50.944;6.932;2024-03-22T06:20:57;7.60;;;3.20;;
7340;SDS011;6870;50.944;6.932;2024-03-22T06:23:23;4.23;;;3.10;;
7340;SDS011;6870;50.944;6.932;2024-03-22T06:25:52;5.43;;;3.13;;
7340;SDS011;6870;50.944;6.932;2024-03-22T06:28:18;8.20;;;4.90;;
7340;SDS011;6870;50.944;6.932;2024-03-22T06:30:46;9.70;;;6.87;;
7340;SDS011;6870;50.944;6.932;2024-03-22T06:33:12;8.87;;;4.90;;
7340;SDS011;6870;50.944;6.932;2024-03-22T06:35:40;10.50;;;7.63;;
7340;SDS011;6870;50.944;6.932;2024-03-22T06:38:06;10.60;;;6.50;;
7340;SDS011;6870;50.944;6.932;2024-03-22T06:40:34;11.00;;;6.37;;
7340;SDS011;6870;50.944;6.932;2024-03-22T06:43:02;11.03;;;6.77;;
7340;SDS011;6870;50.944;6.932;2024-03-22T06:45:30;7.97;;;6.47;;
7340;SDS011;6870;50.944;6.932;2024-03-22T06:47:56;16.73;;;7.50;;
7340;SDS011;6870;50.944;6.932;2024-03-22T06:50:23;8.60;;;5.93;;
7340;SDS011;6870;50.944;6.932;2024-03-22T06:52:52;8.40;;;7.10;;
7340;SDS011;6870;50.944;6.932;2024-03-22T06:55:20;8.83;;;6.87;;
7340;SDS011;6870;50.944;6.932;2024-03-22T06:57:47;7.80;;;7.00;;
7340;SDS011;6870;50.944;6.932;2024-03-22T07:00:17;6.50;;;5.40;;
7340;SDS011;6870;50.944;6.932;2024-03-22T07:02:44;6.60;;;4.23;;
7340;SDS011;6870;50.944;6.932;2024-03-22T07:05:11;5.03;;;4.20;;
7340;SDS011;6870;50.944;6.932;2024-03-22T07:07:38;6.67;;;4.10;;
7340;SDS011;6870;50.944;6.932;2024-03-22T07:10:05;6.20;;;3.77;;
7340;SDS011;6870;50.944;6.932;2024-03-22T07:12:32;6.10;;;4.43;;
7340;SDS011;6870;50.944;6.932;2024-03-22T07:14:59;7.03;;;4.20;;
7340;SDS011;6870;50.944;6.932;2024-03-22T07:17:27;3.83;;;3.03;;
7340;SDS011;6870;50.944;6.932;2024-03-22T07:19:54;7.00;;;4.20;;
7340;SDS011;6870;50.944;6.932;2024-03-22T07:22:21;5.83;;;3.67;;
7340;SDS011;6870;50.944;6.932;2024-03-22T07:24:48;4.23;;;3.33;;
7340;SDS011;6870;50.944;6.932;2024-03-22T07:27:16;7.20;;;3.33;;
7340;SDS011;6870;50.944;6.932;2024-03-22T07:29:44;4.53;;;3.60;;
7340;SDS011;6870;50.944;6.932;2024-03-22T07:32:10;4.23;;;3.37;;
7340;SDS011;6870;50.944;6.932;2024-03-22T07:34:45;6.40;;;3.70;;
7340;SDS011;6870;50.944;6.932;2024-03-22T07:37:13;7.00;;;3.20;;
7340;SDS011;6870;50.944;6.932;2024-03-22T07:39:41;3.57;;;2.70;;
7340;SDS011;6870;50.944;6.932;2024-03-22T07:42:07;4.20;;;2.57;;
7340;SDS011;6870;50.944;6.932;2024-03-22T07:44:34;4.33;;;2.93;;
7340;SDS011;6870;50.944;6.932;2024-03-22T07:47:00;3.97;;;2.83;;
7340;SDS011;6870;50.944;6.932;2024-03-22T07:49:27;3.97;;;2.73;;
7340;SDS011;6870;50.944;6.932;2024-03-22T07:51:55;3.43;;;2.90;;
7340;SDS011;6870;50.944;6.932;2024-03-22T07:54:22;4.07;;;2.70;;
7340;SDS011;6870;50.944;6.932;2024-03-22T07:56:48;3.70;;;2.30;;
7340;SDS011;6870;50.944;6.932;2024-03-22T07:59:15;4.00;;;2.63;;
7340;SDS011;6870;50.944;6.932;2024-03-22T08:01:42;4.73;;;3.10;;
7340;SDS011;6870;50.944;6.932;2024-03-22T08:04:09;6.40;;;2.90;;
7340;SDS011;6870;50.944;6.932;2024-03-22T08:06:35;3.60;;;2.80;;
7340;SDS011;6870;50.944;6.932;2024-03-22T08:09:04;4.33;;;2.70;;
7340;SDS011;6870;50.944;6.932;2024-03-22T08:11:30;5.20;;;3.13;;
7340;SDS011;6870;50.944;6.932;2024-03-22T08:13:58;4.27;;;2.90;;
7340;SDS011;6870;50.944;6.932;2024-03-22T08:16:28;5.50;;;3.23;;
7340;SDS011;6870;50.944;6.932;2024-03-22T08:18:55;5.27;;;2.50;;
7340;SDS011;6870;50.944;6.932;2024-03-22T08:21:22;3.30;;;2.90;;
7340;SDS011;6870;50.944;6.932;2024-03-22T08:23:50;4.37;;;2.90;;
7340;SDS011;6870;50.944;6.932;2024-03-22T08:26:19;4.40;;;2.93;;
7340;SDS011;6870;50.944;6.932;2024-03-22T08:28:46;4.50;;;3.47;;
7340;SDS011;6870;50.944;6.932;2024-03-22T08:31:13;6.70;;;3.70;;
7340;SDS011;6870;50.944;6.932;2024-03-22T08:33:42;7.00;;;2.73;;
7340;SDS011;6870;50.944;6.932;2024-03-22T08:36:08;6.70;;;4.00;;
7340;SDS011;6870;50.944;6.932;2024-03-22T08:38:36;7.27;;;3.13;;
7340;SDS011;6870;50.944;6.932;2024-03-22T08:41:02;5.07;;;3.10;;
7340;SDS011;6870;50.944;6.932;2024-03-22T08:43:31;7.97;;;4.27;;
7340;SDS011;6870;50.944;6.932;2024-03-22T08:45:57;5.40;;;3.77;;
7340;SDS011;6870;50.944;6.932;2024-03-22T08:48:25;7.27;;;3.40;;
7340;SDS011;6870;50.944;6.932;2024-03-22T08:50:51;4.90;;;3.40;;
7340;SDS011;6870;50.944;6.932;2024-03-22T08:53:18;5.17;;;3.33;;
7340;SDS011;6870;50.944;6.932;2024-03-22T08:55:45;6.37;;;4.20;;
7340;SDS011;6870;50.944;6.932;2024-03-22T08:58:13;5.50;;;3.67;;
7340;SDS011;6870;50.944;6.932;2024-03-22T09:00:42;9.33;;;4.07;;
7340;SDS011;6870;50.944;6.932;2024-03-22T09:03:10;5.00;;;3.53;;
7340;SDS011;6870;50.944;6.932;2024-03-22T09:05:36;8.00;;;4.57;;
7340;SDS011;6870;50.944;6.932;2024-03-22T09:08:04;7.90;;;3.77;;
7340;SDS011;6870;50.944;6.932;2024-03-22T09:10:31;10.90;;;4.20;;
7340;SDS011;6870;50.944;6.932;2024-03-22T09:12:59;7.07;;;3.70;;
7340;SDS011;6870;50.944;6.932;2024-03-22T09:15:25;8.30;;;4.27;;
7340;SDS011;6870;50.944;6.932;2024-03-22T09:17:54;7.10;;;4.37;;
7340;SDS011;6870;50.944;6.932;2024-03-22T09:20:21;5.80;;;3.13;;
7340;SDS011;6870;50.944;6.932;2024-03-22T09:22:48;6.00;;;3.70;;
7340;SDS011;6870;50.944;6.932;2024-03-22T09:25:14;10.53;;;4.27;;
7340;SDS011;6870;50.944;6.932;2024-03-22T09:27:42;5.23;;;3.37;;
7340;SDS011;6870;50.944;6.932;2024-03-22T09:30:09;7.87;;;3.70;;
7340;SDS011;6870;50.944;6.932;2024-03-22T09:32:37;5.67;;;3.90;;
7340;SDS011;6870;50.944;6.932;2024-03-22T09:35:06;6.47;;;3.50;;
7340;SDS011;6870;50.944;6.932;2024-03-22T09:37:40;5.00;;;3.70;;
7340;SDS011;6870;50.944;6.932;2024-03-22T09:40:07;5.73;;;4.43;;
7340;SDS011;6870;50.944;6.932;2024-03-22T09:42:35;6.07;;;4.03;;
7340;SDS011;6870;50.944;6.932;2024-03-22T09:45:05;4.83;;;3.60;;
7340;SDS011;6870;50.944;6.932;2024-03-22T09:47:36;7.00;;;4.03;;
7340;SDS011;6870;50.944;6.932;2024-03-22T09:50:03;6.97;;;4.13;;
7340;SDS011;6870;50.944;6.932;2024-03-22T09:52:37;5.90;;;3.53;;
7340;SDS011;6870;50.944;6.932;2024-03-22T09:55:05;5.10;;;3.67;;
7340;SDS011;6870;50.944;6.932;2024-03-22T09:57:34;4.50;;;3.53;;
7340;SDS011;6870;50.944;6.932;2024-03-22T10:00:05;5.33;;;3.70;;
7340;SDS011;6870;50.944;6.932;2024-03-22T10:02:34;4.70;;;3.17;;
7340;SDS011;6870;50.944;6.932;2024-03-22T10:05:01;5.03;;;3.30;;
7340;SDS011;6870;50.944;6.932;2024-03-22T10:07:31;7.03;;;4.17;;
7340;SDS011;6870;50.944;6.932;2024-03-22T10:09:58;6.90;;;3.67;;
7340;SDS011;6870;50.944;6.932;2024-03-22T10:12:25;6.00;;;3.23;;
7340;SDS011;6870;50.944;6.932;2024-03-22T10:14:52;4.27;;;3.87;;
7340;SDS011;6870;50.944;6.932;2024-03-22T10:17:22;7.00;;;3.70;;
7340;SDS011;6870;50.944;6.932;2024-03-22T10:19:52;5.20;;;3.73;;
7340;SDS011;6870;50.944;6.932;2024-03-22T10:22:22;4.33;;;3.23;;
7340;SDS011;6870;50.944;6.932;2024-03-22T10:24:51;5.13;;;3.53;;
7340;SDS011;6870;50.944;6.932;2024-03-22T10:27:20;6.37;;;3.53;;
7340;SDS011;6870;50.944;6.932;2024-03-22T10:29:46;6.60;;;3.90;;
7340;SDS011;6870;50.944;6.932;2024-03-22T10:32:14;5.77;;;3.40;;
7340;SDS011;6870;50.944;6.932;2024-03-22T10:34:42;3.83;;;3.27;;
7340;SDS011;6870;50.944;6.932;2024-03-22T10:37:11;4.77;;;3.90;;
7340;SDS011;6870;50.944;6.932;2024-03-22T10:39:39;5.40;;;3.50;;
7340;SDS011;6870;50.944;6.932;2024-03-22T10:42:11;7.13;;;3.90;;
7340;SDS011;6870;50.944;6.932;2024-03-22T10:44:38;7.03;;;3.90;;
7340;SDS011;6870;50.944;6.932;2024-03-22T10:47:06;4.87;;;3.67;;
7340;SDS011;6870;50.944;6.932;2024-03-22T10:49:37;6.37;;;3.50;;
7340;SDS011;6870;50.944;6.932;2024-03-22T10:52:04;3.53;;;3.10;;
7340;SDS011;6870;50.944;6.932;2024-03-22T10:54:34;4.60;;;3.40;;
7340;SDS011;6870;50.944;6.932;2024-03-22T10:57:06;3.63;;;3.27;;
7340;SDS011;6870;50.944;6.932;2024-03-22T10:59:40;4.17;;;3.77;;
7340;SDS011;6870;50.944;6.932;2024-03-22T11:02:10;5.20;;;3.53;;
7340;SDS011;6870;50.944;6.932;2024-03-22T11:04:36;4.93;;;3.20;;
7340;SDS011;6870;50.944;6.932;2024-03-22T11:07:04;3.87;;;3.27;;
7340;SDS011;6870;50.944;6.932;2024-03-22T11:09:31;3.43;;;3.13;;
7340;SDS011;6870;50.944;6.932;2024-03-22T11:11:58;4.00;;;3.20;;
7340;SDS011;6870;50.944;6.932;2024-03-22T11:14:27;6.07;;;3.73;;
7340;SDS011;6870;50.944;6.932;2024-03-22T11:16:54;6.20;;;3.90;;
7340;SDS011;6870;50.944;6.932;2024-03-22T11:19:21;13.00;;;3.80;;
7340;SDS011;6870;50.944;6.932;2024-03-22T11:21:48;7.60;;;3.90;;
7340;SDS011;6870;50.944;6.932;2024-03-22T11:24:15;6.97;;;3.83;;
7340;SDS011;6870;50.944;6.932;2024-03-22T11:26:42;6.53;;;3.40;;
7340;SDS011;6870;50.944;6.932;2024-03-22T11:29:09;7.67;;;3.60;;
7340;SDS011;6870;50.944;6.932;2024-03-22T11:31:38;5.13;;;4.33;;
7340;SDS011;6870;50.944;6.932;2024-03-22T11:34:04;8.00;;;3.50;;
7340;SDS011;6870;50.944;6.932;2024-03-22T11:36:31;8.00;;;3.73;;
7340;SDS011;6870;50.944;6.932;2024-03-22T11:38:57;6.43;;;3.50;;
7340;SDS011;6870;50.944;6.932;2024-03-22T11:41:25;5.80;;;4.40;;
7340;SDS011;6870;50.944;6.932;2024-03-22T11:43:54;6.63;;;3.87;;
7340;SDS011;6870;50.944;6.932;2024-03-22T11:46:23;5.13;;;3.67;;
7340;SDS011;6870;50.944;6.932;2024-03-22T11:48:54;5.43;;;3.70;;
7340;SDS011;6870;50.944;6.932;2024-03-22T11:51:22;4.90;;;3.73;;
7340;SDS011;6870;50.944;6.932;2024-03-22T11:53:48;7.40;;;4.10;;
7340;SDS011;6870;50.944;6.932;2024-03-22T11:56:20;8.03;;;4.50;;
7340;SDS011;6870;50.944;6.932;2024-03-22T11:58:47;6.87;;;3.90;;
7340;SDS011;6870;50.944;6.932;2024-03-22T12:01:14;5.23;;;4.00;;
7340;SDS011;6870;50.944;6.932;2024-03-22T12:03:46;4.90;;;3.80;;
7340;SDS011;6870;50.944;6.932;2024-03-22T12:06:14;5.40;;;3.50;;
7340;SDS011;6870;50.944;6.932;2024-03-22T12:08:42;4.83;;;4.00;;
7340;SDS011;6870;50.944;6.932;2024-03-22T12:11:08;7.00;;;4.80;;
7340;SDS011;6870;50.944;6.932;2024-03-22T12:13:37;6.00;;;4.87;;
7340;SDS011;6870;50.944;6.932;2024-03-22T12:16:04;4.87;;;3.77;;
7340;SDS011;6870;50.944;6.932;2024-03-22T12:18:32;6.53;;;4.07;;
7340;SDS011;6870;50.944;6.932;2024-03-22T12:20:59;5.60;;;3.53;;
7340;SDS011;6870;50.944;6.932;2024-03-22T12:23:27;4.07;;;3.50;;
7340;SDS011;6870;50.944;6.932;2024-03-22T12:25:54;4.47;;;3.97;;
7340;SDS011;6870;50.944;6.932;2024-03-22T12:28:21;4.40;;;3.30;;
7340;SDS011;6870;50.944;6.932;2024-03-22T12:30:47;5.47;;;3.60;;
7340;SDS011;6870;50.944;6.932;2024-03-22T12:33:15;4.80;;;3.50;;
7340;SDS011;6870;50.944;6.932;2024-03-22T12:35:41;7.73;;;3.30;;
7340;SDS011;6870;50.944;6.932;2024-03-22T12:38:09;6.40;;;3.40;;
7340;SDS011;6870;50.944;6.932;2024-03-22T12:40:39;4.70;;;2.60;;
7340;SDS011;6870;50.944;6.932;2024-03-22T12:43:07;7.70;;;3.20;;
7340;SDS011;6870;50.944;6.932;2024-03-22T12:45:35;3.77;;;2.87;;
7340;SDS011;6870;50.944;6.932;2024-03-22T12:48:02;7.93;;;2.63;;
7340;SDS011;6870;50.944;6.932;2024-03-22T12:50:29;6.67;;;3.10;;
7340;SDS011;6870;50.944;6.932;2024-03-22T12:52:57;6.37;;;3.10;;
7340;SDS011;6870;50.944;6.932;2024-03-22T12:55:23;7.23;;;3.13;;
7340;SDS011;6870;50.944;6.932;2024-03-22T12:57:52;3.50;;;2.93;;
7340;SDS011;6870;50.944;6.932;2024-03-22T13:00:18;3.57;;;2.87;;
7340;SDS011;6870;50.944;6.932;2024-03-22T13:02:46;6.60;;;3.00;;
7340;SDS011;6870;50.944;6.932;2024-03-22T13:05:12;2.70;;;2.20;;
7340;SDS011;6870;50.944;6.932;2024-03-22T13:07:40;4.50;;;3.10;;
7340;SDS011;6870;50.944;6.932;2024-03-22T13:10:07;4.90;;;2.50;;
7340;SDS011;6870;50.944;6.932;2024-03-22T13:12:35;3.20;;;2.40;;
7340;SDS011;6870;50.944;6.932;2024-03-22T13:15:03;3.70;;;2.77;;
7340;SDS011;6870;50.944;6.932;2024-03-22T13:17:31;4.57;;;3.00;;
7340;SDS011;6870;50.944;6.932;2024-03-22T13:19:57;4.00;;;3.23;;
7340;SDS011;6870;50.944;6.932;2024-03-22T13:22:25;5.57;;;2.47;;
7340;SDS011;6870;50.944;6.932;2024-03-22T13:24:51;5.67;;;3.30;;
7340;SDS011;6870;50.944;6.932;2024-03-22T13:27:18;8.00;;;3.60;;
7340;SDS011;6870;50.944;6.932;2024-03-22T13:29:48;6.90;;;3.77;;
7340;SDS011;6870;50.944;6.932;2024-03-22T13:32:16;6.67;;;3.50;;
7340;SDS011;6870;50.944;6.932;2024-03-22T13:34:42;3.33;;;2.93;;
7340;SDS011;6870;50.944;6.932;2024-03-22T13:37:10;7.53;;;3.03;;
7340;SDS011;6870;50.944;6.932;2024-03-22T13:39:36;4.33;;;3.03;;
7340;SDS011;6870;50.944;6.932;2024-03-22T13:42:03;4.50;;;3.43;;
7340;SDS011;6870;50.944;6.932;2024-03-22T13:44:32;10.23;;;3.10;;
7340;SDS011;6870;50.944;6.932;2024-03-22T13:46:59;7.60;;;3.73;;
7340;SDS011;6870;50.944;6.932;2024-03-22T13:49:27;5.10;;;3.60;;
7340;SDS011;6870;50.944;6.932;2024-03-22T13:51:54;8.87;;;3.20;;
7340;SDS011;6870;50.944;6.932;2024-03-22T13:54:20;8.00;;;3.20;;
7340;SDS011;6870;50.944;6.932;2024-03-22T13:56:47;4.37;;;3.17;;
7340;SDS011;6870;50.944;6.932;2024-03-22T13:59:13;5.70;;;3.40;;
7340;SDS011;6870;50.944;6.932;2024-03-22T14:01:41;5.43;;;3.90;;
7340;SDS011;6870;50.944;6.932;2024-03-22T14:04:10;4.80;;;3.50;;
7340;SDS011;6870;50.944;6.932;2024-03-22T14:06:39;4.93;;;3.20;;
7340;SDS011;6870;50.944;6.932;2024-03-22T14:09:05;5.07;;;3.40;;
7340;SDS011;6870;50.944;6.932;2024-03-22T14:11:35;7.33;;;3.90;;
7340;SDS011;6870;50.944;6.932;2024-03-22T14:14:01;9.00;;;3.90;;
7340;SDS011;6870;50.944;6.932;2024-03-22T14:16:29;6.03;;;4.13;;
7340;SDS011;6870;50.944;6.932;2024-03-22T14:18:55;7.00;;;4.47;;
7340;SDS011;6870;50.944;6.932;2024-03-22T14:21:22;8.93;;;4.93;;
7340;SDS011;6870;50.944;6.932;2024-03-22T14:23:50;12.20;;;6.17;;
7340;SDS011;6870;50.944;6.932;2024-03-22T14:26:18;10.40;;;6.00;;
7340;SDS011;6870;50.944;6.932;2024-03-22T14:28:44;7.67;;;5.00;;
7340;SDS011;6870;50.944;6.932;2024-03-22T14:31:12;8.40;;;5.70;;
7340;SDS011;6870;50.944;6.932;2024-03-22T14:33:39;10.27;;;6.40;;
7340;SDS011;6870;50.944;6.932;2024-03-22T14:36:06;7.40;;;4.93;;
7340;SDS011;6870;50.944;6.932;2024-03-22T14:38:34;11.47;;;5.83;;
7340;SDS011;6870;50.944;6.932;2024-03-22T14:41:03;8.50;;;5.50;;
7340;SDS011;6870;50.944;6.932;2024-03-22T14:43:29;7.97;;;5.90;;
7340;SDS011;6870;50.944;6.932;2024-03-22T14:45:59;8.93;;;5.83;;
7340;SDS011;6870;50.944;6.932;2024-03-22T14:48:27;12.97;;;5.17;;
7340;SDS011;6870;50.944;6.932;2024-03-22T14:50:55;8.77;;;5.73;;
7340;SDS011;6870;50.944;6.932;2024-03-22T14:53:21;11.50;;;6.20;;
7340;SDS011;6870;50.944;6.932;2024-03-22T14:55:53;10.60;;;5.50;;
7340;SDS011;6870;50.944;6.932;2024-03-22T14:58:21;9.07;;;6.20;;
7340;SDS011;6870;50.944;6.932;2024-03-22T15:00:52;8.57;;;5.27;;
7340;SDS011;6870;50.944;6.932;2024-03-22T15:03:21;10.90;;;6.30;;
7340;SDS011;6870;50.944;6.932;2024-03-22T15:05:49;8.43;;;5.50;;
7340;SDS011;6870;50.944;6.932;2024-03-22T15:08:17;11.90;;;5.63;;
7340;SDS011;6870;50.944;6.932;2024-03-22T15:10:44;6.73;;;4.63;;
7340;SDS011;6870;50.944;6.932;2024-03-22T15:13:10;7.97;;;5.23;;
7340;SDS011;6870;50.944;6.932;2024-03-22T15:15:39;11.17;;;4.97;;